Time;durP1;ratioP1;P1;durP2;ratioP2;P2;SDS_P1;SDS_P2;PMS_P1;PMS_P2;Temp;Humidity;BMP_temperature;BMP_pressure;BME280_temperature;BME280_humidity;BME280_pressure;Samples;Min_cycle;Max_cycle;Signal;HPM_P1;HPM_P2
2022/05/30 00:00:18;;;;;;;4.55;2.03;;;9.20;99.90;;;;;;5073254;28;20106;-76
2022/05/30 00:02:44;;;;;;;3.58;1.77;;;9.10;99.90;;;;;;5075353;28;20052;-72
2022/05/30 00:05:11;;;;;;;4.15;1.75;;;9.10;99.90;;;;;;5076518;28;20064;-76
2022/05/30 00:07:38;;;;;;;2.03;1.77;;;9.10;99.90;;;;;;5075550;28;20083;-75
2022/05/30 00:10:06;;;;;;;7.90;2.10;;;9.00;99.90;;;;;;5058030;28;20044;-73
2022/05/30 00:12:32;;;;;;;4.95;2.05;;;8.90;99.90;;;;;;5058089;28;20056;-74
2022/05/30 00:14:58;;;;;;;4.45;1.45;;;8.90;99.90;;;;;;5075846;28;20115;-76
2022/05/30 00:17:24;;;;;;;2.15;1.40;;;8.90;99.90;;;;;;5075990;28;20079;-73
2022/05/30 00:19:49;;;;;;;3.47;1.48;;;8.80;99.90;;;;;;5057901;28;20048;-74
2022/05/30 00:22:15;;;;;;;3.67;1.92;;;8.80;99.90;;;;;;5075857;28;20049;-74
2022/05/30 00:24:43;;;;;;;4.22;1.75;;;8.80;99.90;;;;;;5075866;28;20049;-73
2022/05/30 00:27:10;;;;;;;2.05;1.67;;;8.70;99.90;;;;;;5058168;28;20048;-72
2022/05/30 00:29:37;;;;;;;2.30;1.42;;;8.70;99.90;;;;;;5075600;28;20052;-72
2022/05/30 00:32:03;;;;;;;2.50;1.70;;;8.60;99.90;;;;;;5075662;28;20044;-75
2022/05/30 00:34:29;;;;;;;3.35;1.80;;;8.50;99.90;;;;;;5075565;28;20046;-73
2022/05/30 00:36:55;;;;;;;4.82;2.13;;;8.50;99.90;;;;;;5075983;28;20093;-76
2022/05/30 00:39:21;;;;;;;2.80;2.30;;;8.40;99.90;;;;;;5075660;28;20106;-74
2022/05/30 00:41:46;;;;;;;5.03;1.90;;;8.40;99.90;;;;;;5075228;28;20052;-74
2022/05/30 00:44:12;;;;;;;4.78;1.85;;;8.40;99.90;;;;;;5075348;28;20063;-75
2022/05/30 00:46:39;;;;;;;3.97;2.80;;;8.40;99.90;;;;;;5075243;28;20048;-71
2022/05/30 00:49:07;;;;;;;2.13;1.92;;;8.30;99.90;;;;;;5075694;28;20048;-72
2022/05/30 00:51:51;;;;;;;6.55;1.92;;;8.30;99.90;;;;;;5075166;28;20056;-73
2022/05/30 00:54:32;;;;;;;3.47;2.22;;;8.20;99.90;;;;;;5075235;28;20049;-72
2022/05/30 00:57:00;;;;;;;2.55;1.77;;;8.20;99.90;;;;;;5075270;28;20094;-71
2022/05/30 00:59:26;;;;;;;3.25;1.40;;;8.10;99.90;;;;;;5075684;28;20075;-71
2022/05/30 01:01:52;;;;;;;1.60;1.40;;;8.10;99.90;;;;;;5075367;28;20040;-71
2022/05/30 01:07:08;;;;;;;3.17;2.38;;;8.10;99.90;;;;;;5075011;28;20052;-72
2022/05/30 01:09:41;;;;;;;5.60;2.92;;;8.10;99.90;;;;;;5074755;28;20048;-74
2022/05/30 01:12:11;;;;;;;1.60;1.40;;;8.10;99.90;;;;;;5074898;28;20127;-72
2022/05/30 01:14:43;;;;;;;3.33;1.90;;;8.10;99.90;;;;;;5075411;28;20129;-75
2022/05/30 01:17:16;;;;;;;2.22;2.13;;;8.20;99.90;;;;;;5075510;28;20040;-73
2022/05/30 01:19:53;;;;;;;4.72;2.40;;;8.20;99.90;;;;;;5074955;28;20150;-73
2022/05/30 01:22:45;;;;;;;2.45;2.25;;;8.80;99.90;;;;;;5074642;28;20040;-75
2022/05/30 01:25:38;;;;;;;2.55;2.35;;;8.20;99.90;;;;;;5074659;28;20127;-70
2022/05/30 01:28:22;;;;;;;3.13;1.70;;;8.20;99.90;;;;;;5074939;28;20066;-73
2022/05/30 01:30:49;;;;;;;2.33;1.98;;;8.20;99.90;;;;;;5074967;28;20041;-71
2022/05/30 01:33:16;;;;;;;3.05;1.45;;;8.20;99.90;;;;;;5074668;28;20115;-73
2022/05/30 01:35:41;;;;;;;2.00;1.40;;;8.30;99.90;;;;;;5074630;28;20044;-72
2022/05/30 01:38:07;;;;;;;1.60;1.50;;;8.30;99.90;;;;;;5074729;28;20048;-71
2022/05/30 01:40:33;;;;;;;2.92;1.40;;;8.40;99.90;;;;;;5074848;28;20493;-72
2022/05/30 01:42:59;;;;;;;3.97;2.20;;;8.40;99.90;;;;;;5074303;28;20056;-75
2022/05/30 01:45:26;;;;;;;4.75;2.20;;;8.50;99.90;;;;;;5074943;28;20052;-74
2022/05/30 01:47:53;;;;;;;2.85;1.95;;;8.40;99.90;;;;;;5074285;28;20051;-73
2022/05/30 01:50:20;;;;;;;3.10;1.63;;;8.50;99.90;;;;;;5072989;28;20051;-71
2022/05/30 01:52:46;;;;;;;2.88;1.92;;;8.30;99.90;;;;;;5074638;28;20516;-73
2022/05/30 01:55:12;;;;;;;4.30;2.25;;;8.30;99.90;;;;;;5074805;28;20048;-71
2022/05/30 01:57:37;;;;;;;2.50;1.95;;;8.40;99.90;;;;;;5074170;28;20478;-73
2022/05/30 02:00:06;;;;;;;5.68;2.15;;;8.40;99.90;;;;;;5074016;28;20044;-74
2022/05/30 02:02:31;;;;;;;2.70;1.90;;;8.40;99.90;;;;;;5073930;28;20124;-71
2022/05/30 02:04:57;;;;;;;4.07;2.00;;;8.40;99.90;;;;;;5074559;28;20079;-73
2022/05/30 02:07:23;;;;;;;3.65;1.73;;;8.40;99.90;;;;;;5074245;28;20453;-72
2022/05/30 02:09:48;;;;;;;2.63;2.42;;;8.40;99.90;;;;;;5074197;28;20045;-72
2022/05/30 02:12:14;;;;;;;2.47;1.50;;;8.40;99.90;;;;;;5073782;28;20064;-71
2022/05/30 02:14:41;;;;;;;4.75;2.25;;;8.50;99.90;;;;;;5073893;28;20048;-75
2022/05/30 02:17:07;;;;;;;2.50;2.10;;;8.50;99.90;;;;;;5073853;28;20057;-72
2022/05/30 02:19:36;;;;;;;2.70;1.98;;;8.50;99.90;;;;;;5073562;28;20049;-73
2022/05/30 02:22:02;;;;;;;2.67;1.42;;;8.50;99.90;;;;;;5073392;28;20039;-72
2022/05/30 02:24:28;;;;;;;3.13;2.05;;;8.40;99.90;;;;;;5073390;28;20052;-72
2022/05/30 02:26:54;;;;;;;4.68;2.30;;;8.40;99.90;;;;;;5073023;28;20436;-72
2022/05/30 02:29:20;;;;;;;3.95;1.58;;;8.40;99.90;;;;;;5073322;28;20051;-74
2022/05/30 02:31:45;;;;;;;2.88;1.83;;;8.40;99.90;;;;;;5073319;28;20040;-71
2022/05/30 02:36:56;;;;;;;3.67;1.40;;;8.20;99.90;;;;;;5074254;28;20068;-71
2022/05/30 02:39:24;;;;;;;4.40;2.08;;;8.20;99.90;;;;;;5073544;28;20087;-71
2022/05/30 02:41:51;;;;;;;7.95;2.10;;;8.20;99.90;;;;;;5073891;28;20059;-71
2022/05/30 02:44:19;;;;;;;9.82;1.95;;;8.20;99.90;;;;;;5072104;28;20060;-75
2022/05/30 02:46:49;;;;;;;2.13;1.80;;;8.10;99.90;;;;;;5073342;28;20052;-72
2022/05/30 02:49:15;;;;;;;2.40;2.15;;;8.00;99.90;;;;;;5073437;28;20489;-71
2022/05/30 02:51:42;;;;;;;3.60;1.65;;;8.00;99.90;;;;;;5056198;28;20060;-71
2022/05/30 02:54:08;;;;;;;3.47;1.80;;;8.00;99.90;;;;;;5073325;28;20061;-72
2022/05/30 02:56:34;;;;;;;2.35;1.90;;;8.00;99.90;;;;;;5055952;28;20048;-73
2022/05/30 02:59:01;;;;;;;2.95;1.88;;;8.10;99.90;;;;;;5073794;28;20121;-71
2022/05/30 03:01:28;;;;;;;4.75;2.00;;;7.80;99.90;;;;;;5073027;28;20080;-72
2022/05/30 03:03:53;;;;;;;3.50;1.63;;;7.90;99.90;;;;;;5073363;28;20075;-72
2022/05/30 03:06:20;;;;;;;2.22;1.63;;;7.80;99.90;;;;;;5072251;28;20044;-71
2022/05/30 03:08:46;;;;;;;3.78;1.95;;;7.80;99.90;;;;;;5071830;28;20048;-71
2022/05/30 03:11:12;;;;;;;4.82;2.30;;;7.80;99.90;;;;;;5072956;28;20044;-72
2022/05/30 03:13:38;;;;;;;4.07;2.35;;;7.80;99.90;;;;;;5073119;28;20119;-72
2022/05/30 03:16:04;;;;;;;2.85;1.80;;;7.70;99.90;;;;;;5073282;28;20118;-74
2022/05/30 03:18:30;;;;;;;4.15;2.63;;;7.70;99.90;;;;;;5072053;28;20102;-72
2022/05/30 03:20:57;;;;;;;2.13;1.92;;;7.70;99.90;;;;;;5073351;28;20044;-73
2022/05/30 03:23:23;;;;;;;3.30;1.95;;;7.70;99.90;;;;;;5072647;28;20044;-73
2022/05/30 03:25:49;;;;;;;3.13;1.63;;;7.70;99.90;;;;;;5072617;28;20044;-74
2022/05/30 03:28:15;;;;;;;2.83;1.70;;;7.60;99.90;;;;;;5073082;28;20048;-73
2022/05/30 03:30:41;;;;;;;4.38;2.22;;;7.60;99.90;;;;;;5055652;28;20093;-71
2022/05/30 03:33:08;;;;;;;3.08;2.20;;;7.60;99.90;;;;;;5073533;28;20047;-72
2022/05/30 03:35:35;;;;;;;1.55;1.27;;;7.60;99.90;;;;;;5071489;28;20549;-73
2022/05/30 03:38:01;;;;;;;2.58;2.38;;;7.60;99.90;;;;;;5072660;28;20127;-72
2022/05/30 03:40:27;;;;;;;2.10;1.90;;;7.60;99.90;;;;;;5072462;28;20043;-73
2022/05/30 03:42:53;;;;;;;4.10;1.95;;;7.60;99.90;;;;;;5072663;28;20041;-73
2022/05/30 03:45:19;;;;;;;4.68;2.47;;;7.60;99.90;;;;;;5072611;28;20056;-72
2022/05/30 03:47:46;;;;;;;5.30;1.80;;;7.60;99.90;;;;;;5072421;28;20067;-72
2022/05/30 03:50:18;;;;;;;1.92;1.42;;;7.60;99.90;;;;;;5072406;28;20055;-72
2022/05/30 03:52:44;;;;;;;2.25;1.60;;;7.70;99.90;;;;;;5072022;28;20507;-73
2022/05/30 03:55:14;;;;;;;1.65;1.52;;;7.70;99.90;;;;;;5072870;28;20045;-73
2022/05/30 03:57:41;;;;;;;4.65;1.67;;;7.80;99.90;;;;;;5072384;28;20052;-74
2022/05/30 04:00:16;;;;;;;2.63;1.80;;;7.90;99.90;;;;;;5072276;28;20530;-72
2022/05/30 04:02:42;;;;;;;3.28;1.98;;;7.90;99.90;;;;;;5072713;28;20044;-72
2022/05/30 04:05:09;;;;;;;1.52;1.35;;;8.00;99.90;;;;;;5072703;28;20040;-72
2022/05/30 04:07:35;;;;;;;2.47;1.63;;;8.00;99.90;;;;;;5072642;28;20054;-72
2022/05/30 04:10:02;;;;;;;1.67;1.38;;;8.10;99.90;;;;;;5072727;28;20135;-72
2022/05/30 04:12:27;;;;;;;3.60;1.55;;;8.10;99.90;;;;;;5072645;28;20044;-72
2022/05/30 04:14:59;;;;;;;2.22;1.27;;;8.20;99.90;;;;;;5072371;28;20530;-73
2022/05/30 04:17:25;;;;;;;2.92;2.15;;;8.30;99.90;;;;;;5072408;28;20146;-73
2022/05/30 04:19:52;;;;;;;3.90;1.70;;;8.30;99.90;;;;;;5072216;28;20530;-72
2022/05/30 04:22:18;;;;;;;1.58;1.23;;;8.40;99.90;;;;;;5072005;28;20502;-72
2022/05/30 04:24:44;;;;;;;2.15;1.85;;;8.50;99.90;;;;;;5071722;28;20541;-72
2022/05/30 04:27:10;;;;;;;2.47;1.80;;;8.60;99.90;;;;;;5072134;28;20048;-72
2022/05/30 04:29:36;;;;;;;6.35;2.33;;;8.60;99.90;;;;;;5072097;28;20494;-71
2022/05/30 04:32:03;;;;;;;3.10;1.83;;;8.70;99.90;;;;;;5072140;28;20085;-72
2022/05/30 04:34:30;;;;;;;5.55;1.70;;;8.70;99.90;;;;;;5053945;28;20376;-74
2022/05/30 04:36:56;;;;;;;2.83;2.38;;;8.80;99.90;;;;;;5054027;28;20048;-72
2022/05/30 04:39:22;;;;;;;2.75;1.95;;;8.80;99.90;;;;;;5071398;28;20051;-72
2022/05/30 04:41:48;;;;;;;2.83;1.65;;;8.80;99.90;;;;;;5071528;28;20044;-72
2022/05/30 04:44:14;;;;;;;3.13;1.73;;;8.90;99.90;;;;;;5071444;28;20560;-73
2022/05/30 04:46:39;;;;;;;1.58;1.48;;;9.00;99.90;;;;;;5073073;28;20115;-74
2022/05/30 04:49:05;;;;;;;3.55;1.08;;;9.00;99.90;;;;;;5075223;28;20093;-74
2022/05/30 04:51:31;;;;;;;2.47;1.73;;;9.00;99.90;;;;;;5075140;28;20040;-72
2022/05/30 04:53:57;;;;;;;1.10;1.00;;;9.10;99.90;;;;;;5074955;28;20040;-74
2022/05/30 04:56:23;;;;;;;2.83;1.40;;;9.10;99.90;;;;;;5075353;28;20044;-73
2022/05/30 04:58:50;;;;;;;3.08;1.50;;;9.20;99.90;;;;;;5057478;28;20123;-73
2022/05/30 05:01:16;;;;;;;3.92;1.65;;;9.30;99.90;;;;;;5074692;28;20089;-74
2022/05/30 05:03:43;;;;;;;3.55;2.10;;;9.30;99.90;;;;;;5074519;28;20448;-72
2022/05/30 05:06:16;;;;;;;2.78;1.70;;;9.40;99.90;;;;;;5074371;28;20556;-72
2022/05/30 05:08:59;;;;;;;1.60;1.50;;;9.40;99.90;;;;;;5074624;28;20044;-72
2022/05/30 05:11:33;;;;;;;5.60;1.60;;;9.40;99.90;;;;;;5075071;28;20040;-73
2022/05/30 05:13:59;;;;;;;1.90;1.73;;;9.40;99.90;;;;;;5074455;28;20051;-73
2022/05/30 05:16:27;;;;;;;1.88;1.77;;;9.50;99.90;;;;;;5074502;28;20036;-72
2022/05/30 05:18:54;;;;;;;2.25;1.13;;;9.60;99.90;;;;;;5074896;28;20151;-74
2022/05/30 05:21:25;;;;;;;1.95;1.70;;;9.60;99.90;;;;;;5074006;28;20356;-73
2022/05/30 05:23:51;;;;;;;2.35;1.63;;;9.70;99.90;;;;;;5074295;28;20052;-72
2022/05/30 05:26:18;;;;;;;1.90;1.40;;;9.80;99.90;;;;;;5074186;28;20121;-74
2022/05/30 05:28:44;;;;;;;2.15;1.25;;;9.80;99.90;;;;;;5073654;28;20099;-76
2022/05/30 05:31:14;;;;;;;1.67;1.17;;;10.00;99.90;;;;;;5074690;28;20074;-72
2022/05/30 05:33:40;;;;;;;2.70;2.00;;;10.00;99.90;;;;;;5074424;28;20040;-75
2022/05/30 05:36:06;;;;;;;1.67;1.50;;;10.10;99.90;;;;;;5074202;28;20116;-75
2022/05/30 05:38:32;;;;;;;3.58;1.80;;;10.10;99.90;;;;;;5074487;28;20040;-73
2022/05/30 05:40:58;;;;;;;4.75;1.92;;;10.30;99.90;;;;;;5056954;28;20050;-71
2022/05/30 05:43:24;;;;;;;3.72;1.90;;;10.40;99.90;;;;;;5074686;28;20399;-71
2022/05/30 05:45:50;;;;;;;3.65;2.20;;;10.50;99.90;;;;;;5074444;28;20049;-72
2022/05/30 05:48:16;;;;;;;1.35;1.23;;;10.60;99.90;;;;;;5073986;28;20079;-72
2022/05/30 05:50:43;;;;;;;2.17;1.70;;;10.60;99.90;;;;;;5074345;28;20040;-72
2022/05/30 05:53:11;;;;;;;2.17;1.42;;;10.70;99.90;;;;;;5074240;28;20056;-73
2022/05/30 05:55:38;;;;;;;2.42;2.22;;;10.80;99.90;;;;;;5073986;28;20044;-74
2022/05/30 05:58:04;;;;;;;3.63;1.70;;;10.80;99.90;;;;;;5072748;28;20518;-72
2022/05/30 06:00:31;;;;;;;1.75;1.65;;;10.80;99.90;;;;;;5055968;28;20041;-74
2022/05/30 06:02:57;;;;;;;2.53;2.03;;;10.80;99.90;;;;;;5073727;28;20056;-74
2022/05/30 06:05:23;;;;;;;2.97;1.95;;;10.80;99.90;;;;;;5074263;28;20114;-73
2022/05/30 06:07:49;;;;;;;2.97;1.92;;;10.70;99.90;;;;;;5073817;28;20044;-72
2022/05/30 06:10:15;;;;;;;2.35;1.52;;;11.00;99.90;;;;;;5073472;28;20494;-72
2022/05/30 06:12:43;;;;;;;2.88;1.70;;;11.20;99.90;;;;;;5073190;28;20119;-72
2022/05/30 06:15:11;;;;;;;4.43;1.35;;;11.40;99.90;;;;;;5072646;28;20079;-74
2022/05/30 06:17:40;;;;;;;2.22;1.42;;;11.60;99.90;;;;;;5072197;28;20129;-74
2022/05/30 06:20:08;;;;;;;2.08;1.40;;;11.80;99.90;;;;;;5073161;28;20052;-72
2022/05/30 06:22:34;;;;;;;2.05;1.30;;;12.00;99.90;;;;;;5073198;28;20049;-72
2022/05/30 06:25:00;;;;;;;1.70;1.60;;;12.10;99.90;;;;;;5073075;28;20055;-74
2022/05/30 06:27:26;;;;;;;2.42;1.27;;;12.30;99.90;;;;;;5073094;28;20098;-74
2022/05/30 06:29:52;;;;;;;3.70;1.25;;;12.40;99.90;;;;;;5072920;28;20132;-72
2022/05/30 06:32:18;;;;;;;4.20;1.55;;;12.60;99.90;;;;;;5073055;28;20124;-72
2022/05/30 06:34:44;;;;;;;2.35;1.20;;;12.90;99.90;;;;;;5072925;28;20047;-72
2022/05/30 06:37:10;;;;;;;2.35;1.10;;;13.00;99.90;;;;;;5072815;28;20041;-72
2022/05/30 06:39:37;;;;;;;1.20;1.10;;;13.00;99.90;;;;;;5071789;28;20186;-71
2022/05/30 06:42:08;;;;;;;3.75;1.20;;;13.00;99.90;;;;;;5072889;28;20040;-72
2022/05/30 06:44:35;;;;;;;3.17;1.20;;;13.10;99.90;;;;;;5072682;28;20146;-72
2022/05/30 06:47:05;;;;;;;3.92;1.80;;;13.10;99.90;;;;;;5072974;28;20044;-71
2022/05/30 06:49:31;;;;;;;1.35;0.90;;;13.10;99.90;;;;;;5055169;28;20044;-71
2022/05/30 06:51:57;;;;;;;2.17;0.95;;;13.40;99.90;;;;;;5072846;28;20032;-71
2022/05/30 06:54:23;;;;;;;1.35;0.90;;;14.50;99.90;;;;;;5072793;28;20063;-74
2022/05/30 06:59:34;;;;;;;2.40;0.90;;;16.10;99.90;;;;;;5073168;28;20113;-73
2022/05/30 07:02:01;;;;;;;0.90;0.90;;;16.60;99.90;;;;;;5072802;28;20060;-75
2022/05/30 07:04:32;;;;;;;3.05;0.82;;;16.60;99.90;;;;;;5072884;28;20114;-71
2022/05/30 07:06:57;;;;;;;2.80;1.40;;;17.00;99.90;;;;;;5072655;28;20112;-74
2022/05/30 07:09:23;;;;;;;1.73;1.02;;;17.10;99.90;;;;;;5072584;28;20048;-74
2022/05/30 07:11:49;;;;;;;1.33;0.77;;;17.10;99.90;;;;;;5072691;28;20037;-73
2022/05/30 07:14:16;;;;;;;2.17;1.10;;;17.40;99.90;;;;;;5072135;28;20460;-73
2022/05/30 07:16:43;;;;;;;1.70;0.80;;;17.90;99.90;;;;;;5072099;28;20048;-73
2022/05/30 07:19:09;;;;;;;1.00;0.90;;;18.20;99.90;;;;;;5071714;28;20032;-73
2022/05/30 07:21:36;;;;;;;1.75;0.70;;;17.80;99.90;;;;;;5071875;28;20493;-73
2022/05/30 07:24:02;;;;;;;4.43;1.00;;;17.20;99.90;;;;;;5071368;28;20045;-72
2022/05/30 07:26:29;;;;;;;2.72;1.00;;;16.70;99.90;;;;;;5071654;28;20048;-72
2022/05/30 07:28:55;;;;;;;2.30;0.98;;;15.80;99.90;;;;;;5072032;28;20045;-72
2022/05/30 07:31:25;;;;;;;0.98;0.90;;;15.20;99.90;;;;;;5072428;28;20114;-72
2022/05/30 07:33:51;;;;;;;1.38;1.10;;;14.80;99.90;;;;;;5071710;28;20522;-72
2022/05/30 07:36:27;;;;;;;2.17;0.73;;;14.50;99.90;;;;;;5071783;28;20044;-73
2022/05/30 07:38:53;;;;;;;1.42;0.85;;;14.30;99.90;;;;;;5070714;28;20570;-72
2022/05/30 07:41:20;;;;;;;2.92;1.13;;;14.20;99.90;;;;;;5070839;28;20062;-74
2022/05/30 07:43:47;;;;;;;2.20;0.93;;;13.90;99.90;;;;;;5071224;28;20061;-76
2022/05/30 07:46:15;;;;;;;4.03;1.08;;;13.90;99.90;;;;;;5071445;28;20055;-74
2022/05/30 07:48:41;;;;;;;0.98;0.98;;;14.00;99.90;;;;;;5071518;28;20480;-72
2022/05/30 07:51:09;;;;;;;0.60;0.60;;;14.00;99.90;;;;;;5071813;28;20044;-73
2022/05/30 07:53:37;;;;;;;1.67;1.58;;;14.10;99.90;;;;;;5071378;28;20040;-74
2022/05/30 07:56:07;;;;;;;0.95;0.90;;;14.10;99.90;;;;;;5071637;28;20036;-72
2022/05/30 07:58:33;;;;;;;0.82;0.80;;;14.20;99.90;;;;;;5071323;28;20127;-74
2022/05/30 08:00:59;;;;;;;1.20;1.10;;;14.30;99.90;;;;;;5071379;28;20529;-74
2022/05/30 08:03:26;;;;;;;0.73;0.73;;;13.90;99.90;;;;;;5071339;28;20040;-76
2022/05/30 08:06:02;;;;;;;1.85;0.95;;;13.70;99.90;;;;;;5071392;28;20095;-73
2022/05/30 08:08:28;;;;;;;1.20;0.70;;;13.40;99.90;;;;;;5071153;28;20033;-73
2022/05/30 08:10:53;;;;;;;1.35;0.95;;;13.10;99.90;;;;;;5071545;28;20040;-74
2022/05/30 08:13:19;;;;;;;3.47;1.00;;;13.00;99.90;;;;;;5071396;28;20087;-72
2022/05/30 08:15:45;;;;;;;1.67;1.20;;;12.90;99.90;;;;;;5071383;28;20040;-74
2022/05/30 08:18:15;;;;;;;1.20;0.80;;;12.60;99.90;;;;;;5071833;28;20045;-73
2022/05/30 08:20:41;;;;;;;0.90;0.90;;;12.60;99.90;;;;;;5071623;28;20515;-72
2022/05/30 08:23:07;;;;;;;0.75;0.75;;;12.60;99.90;;;;;;5074955;28;20044;-73
2022/05/30 08:25:33;;;;;;;2.58;1.20;;;12.50;99.90;;;;;;5075540;28;20043;-72
2022/05/30 08:27:59;;;;;;;1.05;0.95;;;12.50;99.90;;;;;;5075121;28;20352;-72
2022/05/30 08:30:25;;;;;;;1.40;0.70;;;12.30;99.90;;;;;;5057702;28;20041;-75
2022/05/30 08:32:50;;;;;;;1.23;0.82;;;12.70;99.90;;;;;;5075128;28;20047;-73
2022/05/30 08:35:18;;;;;;;0.80;0.80;;;13.20;99.90;;;;;;5074659;28;20474;-74
2022/05/30 08:37:45;;;;;;;0.80;0.70;;;13.70;99.90;;;;;;5074519;28;20044;-73
2022/05/30 08:43:13;;;;;;;1.10;0.90;;;14.70;99.90;;;;;;5074306;28;20054;-71
2022/05/30 08:45:44;;;;;;;0.82;0.80;;;14.70;99.90;;;;;;5074955;28;20044;-73
2022/05/30 08:48:18;;;;;;;0.60;0.55;;;15.00;99.90;;;;;;5074169;28;20490;-75
2022/05/30 08:50:51;;;;;;;0.80;0.80;;;15.20;99.90;;;;;;5056600;28;20045;-75
2022/05/30 08:53:34;;;;;;;2.22;1.50;;;15.60;99.90;;;;;;5056499;28;20115;-76
2022/05/30 08:56:17;;;;;;;1.65;0.73;;;15.70;99.90;;;;;;5074722;28;20055;-75
2022/05/30 08:58:52;;;;;;;1.15;0.90;;;15.40;99.90;;;;;;5074575;28;20044;-74
2022/05/30 09:01:32;;;;;;;7.13;5.70;;;15.00;99.90;;;;;;5056234;28;20424;-78
2022/05/30 09:04:16;;;;;;;4.72;1.98;;;14.70;99.90;;;;;;5074056;28;20468;-76
2022/05/30 09:06:49;;;;;;;1.45;1.00;;;14.10;99.90;;;;;;5075030;28;20048;-71
2022/05/30 09:09:22;;;;;;;;;;;13.60;99.90;;;;;;5075190;28;20036;-76
2022/05/30 09:11:56;;;;;;;2.75;0.80;;;13.40;99.90;;;;;;5074824;28;19921;-77
2022/05/30 09:14:49;;;;;;;2.15;0.82;;;13.20;99.90;;;;;;5075168;28;20102;-72
2022/05/30 09:18:01;;;;;;;14.55;10.32;;;13.00;99.90;;;;;;5057022;28;20063;-72
2022/05/30 09:20:28;;;;;;;0.47;0.47;;;12.80;99.90;;;;;;5032501;28;20047;-71
2022/05/30 09:22:54;;;;;;;0.50;0.43;;;12.70;99.90;;;;;;5032484;28;20124;-71
2022/05/30 09:28:12;;;;;;;0.25;0.25;;;12.70;99.90;;;;;;5074430;28;20059;-72
2022/05/30 09:31:22;;;;;;;0.50;0.50;;;12.70;99.90;;;;;;5074904;28;20036;-73
2022/05/30 09:33:59;;;;;;;0.90;0.40;;;12.70;99.90;;;;;;5040944;28;20056;-71
2022/05/30 09:36:30;;;;;;;0.85;0.50;;;12.50;99.90;;;;;;5073920;28;20080;-70
2022/05/30 09:39:14;;;;;;;0.95;0.60;;;12.70;99.90;;;;;;5074190;28;20534;-78
2022/05/30 09:41:39;;;;;;;0.50;0.50;;;12.80;99.90;;;;;;5073961;28;20090;-73
2022/05/30 09:44:26;;;;;;;72.93;46.45;;;12.80;99.90;;;;;;5056280;28;20052;-76
2022/05/30 09:47:01;;;;;;;0.75;0.70;;;12.90;99.90;;;;;;5073985;28;20056;-78
2022/05/30 09:49:36;;;;;;;0.65;0.65;;;12.90;99.90;;;;;;5073964;28;20124;-74
2022/05/30 09:52:19;;;;;;;0.40;0.40;;;13.00;99.90;;;;;;5074186;28;20399;-74
2022/05/30 09:54:45;;;;;;;;;;;13.10;99.90;;;;;;5074323;28;20110;-76
2022/05/30 09:57:19;;;;;;;0.95;0.50;;;13.10;99.90;;;;;;5073448;28;19916;-78
2022/05/30 09:59:49;;;;;;;1.52;0.43;;;13.20;99.90;;;;;;5073414;28;20045;-76
2022/05/30 10:02:34;;;;;;;0.50;0.50;;;13.30;99.90;;;;;;5073227;28;20033;-76
2022/05/30 10:05:27;;;;;;;2.40;0.50;;;13.40;99.90;;;;;;5073364;28;20055;-74
2022/05/30 10:07:58;;;;;;;0.40;0.40;;;13.50;99.90;;;;;;5073096;28;20054;-74
2022/05/30 10:10:48;;;;;;;0.60;0.60;;;13.50;99.90;;;;;;5073065;28;20040;-74
2022/05/30 10:13:28;;;;;;;0.50;0.50;;;13.60;99.90;;;;;;5061137;28;20088;-75
2022/05/30 10:15:57;;;;;;;1.20;0.40;;;13.60;99.90;;;;;;5073639;28;20041;-74
2022/05/30 10:18:29;;;;;;;1.10;0.85;;;13.80;99.90;;;;;;5073352;28;20119;-72
2022/05/30 10:21:22;;;;;;;32.67;19.13;;;13.90;99.90;;;;;;5073193;28;20098;-73
2022/05/30 10:30:23;;;;;;;3.30;0.80;;;14.10;99.90;;;;;;5073301;28;20071;-74
2022/05/30 10:33:27;;;;;;;1.98;0.88;;;14.40;99.90;;;;;;5073379;28;20494;-76
2022/05/30 10:36:18;;;;;;;0.50;0.50;;;14.60;99.90;;;;;;5041955;28;20052;-75
2022/05/30 10:38:44;;;;;;;0.73;0.70;;;14.90;99.90;;;;;;5073438;28;20040;-76
2022/05/30 10:41:16;;;;;;;2.20;1.52;;;15.10;99.90;;;;;;5072867;28;20488;-75
2022/05/30 10:43:59;;;;;;;0.85;0.73;;;15.30;99.90;;;;;;5072435;28;20135;-75
2022/05/30 10:46:56;;;;;;;11.30;3.75;;;15.40;99.90;;;;;;5073284;28;20135;-75
2022/05/30 10:49:25;;;;;;;4.18;1.65;;;15.60;99.90;;;;;;5073555;28;20052;-74
2022/05/30 10:52:04;;;;;;;2.53;0.70;;;15.80;99.90;;;;;;5072671;28;20062;-75
2022/05/30 10:54:37;;;;;;;0.50;0.50;;;16.10;99.90;;;;;;5072928;28;20050;-74
2022/05/30 10:57:27;;;;;;;0.55;0.40;;;16.40;99.90;;;;;;5072699;28;20040;-74
2022/05/30 11:00:05;;;;;;;0.82;0.70;;;16.60;99.90;;;;;;5072972;28;20052;-77
2022/05/30 11:02:46;;;;;;;1.23;0.50;;;16.60;99.90;;;;;;5072758;28;20055;-76
2022/05/30 11:05:25;;;;;;;1.63;0.80;;;16.60;99.90;;;;;;5055077;28;20414;-75
2022/05/30 11:08:05;;;;;;;0.60;0.50;;;16.50;99.90;;;;;;5072668;28;20372;-75
2022/05/30 11:10:32;;;;;;;1.35;0.52;;;16.50;99.10;;;;;;5071979;28;20048;-74
2022/05/30 11:13:07;;;;;;;211.60;145.45;;;16.40;99.50;;;;;;5072175;28;20499;-74
2022/05/30 11:15:40;;;;;;;4.05;2.22;;;16.30;98.90;;;;;;5071877;28;20043;-72
2022/05/30 11:18:23;;;;;;;2.50;0.80;;;16.00;97.60;;;;;;5072410;28;20118;-77
2022/05/30 11:21:04;;;;;;;0.30;0.30;;;15.50;98.90;;;;;;5072009;28;20087;-75
2022/05/30 11:23:30;;;;;;;1.15;0.60;;;14.70;98.80;;;;;;5071938;28;20449;-73
2022/05/30 11:26:22;;;;;;;0.25;0.25;;;14.40;99.90;;;;;;5072164;28;20147;-73
2022/05/30 11:29:25;;;;;;;5.20;3.42;;;14.00;99.90;;;;;;5072180;28;20132;-75
2022/05/30 11:32:00;;;;;;;1.73;0.75;;;13.60;99.90;;;;;;5071746;28;20537;-71
2022/05/30 11:34:39;;;;;;;0.45;0.45;;;13.50;99.90;;;;;;5071613;28;20106;-75
2022/05/30 11:37:41;;;;;;;1.13;0.50;;;13.30;99.90;;;;;;5070478;28;20131;-73
2022/05/30 11:40:38;;;;;;;0.73;0.40;;;13.20;99.90;;;;;;5071587;28;20480;-72
2022/05/30 11:43:23;;;;;;;1.23;0.50;;;13.10;99.90;;;;;;5071607;28;20114;-72
2022/05/30 11:46:20;;;;;;;0.80;0.50;;;13.10;99.90;;;;;;5072138;28;20049;-72
2022/05/30 11:48:45;;;;;;;3.85;2.58;;;13.00;99.90;;;;;;5071472;28;20059;-75
2022/05/30 11:51:47;;;;;;;0.85;0.70;;;12.90;99.90;;;;;;5071572;28;20032;-74
2022/05/30 11:54:42;;;;;;;0.80;0.70;;;12.90;99.90;;;;;;5040174;28;20217;-74
2022/05/30 11:57:32;;;;;;;0.70;0.70;;;12.70;99.90;;;;;;5070527;28;20086;-74
2022/05/30 12:00:21;;;;;;;0.50;0.50;;;12.80;99.90;;;;;;5071750;28;20036;-74
2022/05/30 12:03:22;;;;;;;0.50;0.50;;;12.70;99.90;;;;;;5054082;28;20421;-73
2022/05/30 12:06:26;;;;;;;0.55;0.50;;;12.80;99.90;;;;;;5071251;28;20044;-74
2022/05/30 12:08:58;;;;;;;1.33;0.70;;;12.90;99.90;;;;;;5071443;28;20102;-73
2022/05/30 12:11:32;;;;;;;0.80;0.80;;;13.00;99.90;;;;;;5071215;28;20048;-74
2022/05/30 12:14:00;;;;;;;0.50;0.50;;;13.00;99.90;;;;;;5071700;28;20090;-74
2022/05/30 12:16:40;;;;;;;0.70;0.70;;;13.10;99.90;;;;;;5071409;28;20375;-73
2022/05/30 12:25:34;;;;;;;0.73;0.68;;;13.20;99.90;;;;;;5071509;28;20106;-73
2022/05/30 12:27:59;;;;;;;0.60;0.50;;;13.20;99.90;;;;;;5053060;28;20045;-74
2022/05/30 12:30:34;;;;;;;0.55;0.55;;;13.20;99.90;;;;;;5071119;28;20046;-74
2022/05/30 12:33:00;;;;;;;2.28;0.50;;;13.20;99.90;;;;;;5071296;28;20048;-74
2022/05/30 12:35:29;;;;;;;0.70;0.70;;;13.20;99.90;;;;;;5071059;28;20133;-74
2022/05/30 12:38:01;;;;;;;11.30;9.40;;;13.30;99.90;;;;;;5053626;28;20411;-71
2022/05/30 12:40:26;;;;;;;0.90;0.90;;;13.40;99.90;;;;;;5071118;28;20499;-72
2022/05/30 12:43:27;;;;;;;0.70;0.70;;;13.50;99.90;;;;;;5070649;28;20041;-71
2022/05/30 12:45:55;;;;;;;3.05;0.80;;;13.60;99.90;;;;;;5070883;28;20053;-72
2022/05/30 12:48:39;;;;;;;0.43;0.43;;;13.80;99.90;;;;;;5071377;28;20044;-70
2022/05/30 12:51:40;;;;;;;1.42;0.93;;;13.80;99.90;;;;;;5070317;28;20091;-75
2022/05/30 12:54:06;;;;;;;0.65;0.65;;;13.90;99.90;;;;;;5044536;28;20448;-74
2022/05/30 12:56:59;;;;;;;1.02;0.75;;;14.00;99.90;;;;;;5070558;28;20049;-74
2022/05/30 12:59:33;;;;;;;0.80;0.80;;;14.20;99.90;;;;;;5070796;28;20044;-75
2022/05/30 13:02:01;;;;;;;1.75;0.70;;;14.20;99.90;;;;;;5070732;28;20102;-73
2022/05/30 13:04:36;;;;;;;0.90;0.70;;;14.40;99.90;;;;;;5070829;28;20105;-73
2022/05/30 13:07:01;;;;;;;0.70;0.70;;;14.60;99.90;;;;;;5053760;28;20123;-74
2022/05/30 13:09:41;;;;;;;1.17;0.70;;;14.70;99.90;;;;;;5074387;28;20216;-75
2022/05/30 13:12:20;;;;;;;0.65;0.65;;;14.70;99.90;;;;;;5075235;28;20133;-75
2022/05/30 13:15:01;;;;;;;1.65;0.57;;;15.10;99.90;;;;;;5057327;28;20044;-75
2022/05/30 13:17:53;;;;;;;2.00;1.13;;;15.20;99.90;;;;;;5074530;28;20090;-76
2022/05/30 13:20:21;;;;;;;1.17;1.10;;;15.50;99.90;;;;;;5074354;28;20044;-74
2022/05/30 13:22:52;;;;;;;1.15;0.65;;;15.60;99.90;;;;;;5074748;28;20127;-70
2022/05/30 13:25:20;;;;;;;1.60;0.73;;;15.50;99.90;;;;;;5074984;28;20036;-73
2022/05/30 13:27:47;;;;;;;0.65;0.65;;;15.40;99.90;;;;;;5074543;28;20123;-73
2022/05/30 13:30:19;;;;;;;0.52;0.52;;;15.20;99.90;;;;;;5073957;28;20166;-74
2022/05/30 13:32:45;;;;;;;0.55;0.55;;;14.90;99.90;;;;;;5074567;28;20049;-72
2022/05/30 13:35:12;;;;;;;1.38;0.55;;;14.70;99.90;;;;;;5074190;28;20043;-73
2022/05/30 13:37:43;;;;;;;1.70;0.82;;;14.80;99.90;;;;;;5056761;28;20123;-74